Time;durP1;ratioP1;P1;durP2;ratioP2;P2;SDS_P1;SDS_P2;PMS_P1;PMS_P2;Temp;Humidity;BMP_temperature;BMP_pressure;BME280_temperature;BME280_humidity;BME280_pressure;Samples;Min_cycle;Max_cycle;Signal;HPM_P1;HPM_P2
2023/01/16 00:00:47;;;;;;;2.55;0.70;;;4.60;99.90;;;;;;5100108;28;20116;-68
2023/01/16 00:03:13;;;;;;;1.73;0.73;;;4.60;99.90;;;;;;5087003;28;20029;-69
2023/01/16 00:05:38;;;;;;;2.10;0.80;;;4.70;99.90;;;;;;5099467;28;20050;-63
2023/01/16 00:08:04;;;;;;;2.83;0.70;;;4.80;99.90;;;;;;5078587;28;20032;-62
2023/01/16 00:10:29;;;;;;;2.58;0.80;;;4.80;99.90;;;;;;5086004;28;20127;-62
2023/01/16 00:12:54;;;;;;;2.13;0.98;;;4.80;99.90;;;;;;5077465;28;20083;-63
2023/01/16 00:15:20;;;;;;;3.80;1.50;;;4.90;99.90;;;;;;5088410;28;20658;-63
2023/01/16 00:17:47;;;;;;;2.45;0.63;;;4.90;99.90;;;;;;5073292;28;20094;-63
2023/01/16 00:20:13;;;;;;;1.90;1.20;;;4.90;99.90;;;;;;5098045;28;20027;-62
2023/01/16 00:22:38;;;;;;;2.22;0.90;;;5.00;99.90;;;;;;5076536;28;20036;-62
2023/01/16 00:25:04;;;;;;;6.38;1.13;;;5.00;99.90;;;;;;5089299;28;20097;-62
2023/01/16 00:27:30;;;;;;;1.38;0.73;;;5.00;99.90;;;;;;5077411;28;20495;-62
2023/01/16 00:29:55;;;;;;;3.17;1.63;;;5.00;99.90;;;;;;5106026;28;20023;-62
2023/01/16 00:32:21;;;;;;;2.05;0.60;;;5.00;99.90;;;;;;5092054;28;20044;-62
2023/01/16 00:34:46;;;;;;;1.88;0.70;;;5.10;99.90;;;;;;5087938;28;20405;-63
2023/01/16 00:37:11;;;;;;;2.15;0.68;;;5.10;99.90;;;;;;5082409;28;20427;-63
2023/01/16 00:39:39;;;;;;;5.40;1.00;;;5.10;99.90;;;;;;5097989;28;20056;-63
2023/01/16 00:42:05;;;;;;;3.13;0.70;;;5.10;99.80;;;;;;5094947;28;20451;-63
2023/01/16 00:44:30;;;;;;;2.67;1.00;;;5.10;99.20;;;;;;5098737;28;20056;-63
2023/01/16 00:46:56;;;;;;;2.72;0.85;;;5.10;99.20;;;;;;5096036;28;20099;-63
2023/01/16 00:49:21;;;;;;;1.15;0.80;;;5.20;99.10;;;;;;5078471;28;20037;-63
2023/01/16 00:51:47;;;;;;;2.30;0.75;;;5.20;98.70;;;;;;5104922;28;20039;-62
2023/01/16 00:54:12;;;;;;;2.40;0.95;;;5.20;99.10;;;;;;5079021;28;20093;-64
2023/01/16 00:56:38;;;;;;;2.17;0.80;;;5.30;99.20;;;;;;5093517;28;20031;-63
2023/01/16 00:59:03;;;;;;;4.13;0.90;;;5.30;98.60;;;;;;5101369;28;20051;-63
2023/01/16 01:01:29;;;;;;;3.10;1.02;;;5.30;98.50;;;;;;5096016;28;20089;-62
2023/01/16 01:03:54;;;;;;;3.13;0.80;;;5.30;98.50;;;;;;5096652;28;20110;-63
2023/01/16 01:06:20;;;;;;;2.50;0.80;;;5.30;98.20;;;;;;5090500;28;20024;-63
2023/01/16 01:08:45;;;;;;;1.73;0.60;;;5.30;98.10;;;;;;5089615;28;20034;-63
2023/01/16 01:11:13;;;;;;;1.83;0.95;;;5.30;97.90;;;;;;5093630;28;20047;-63
2023/01/16 01:13:40;;;;;;;1.65;0.70;;;5.30;97.60;;;;;;5094709;28;20510;-63
2023/01/16 01:16:06;;;;;;;1.35;0.60;;;5.30;97.60;;;;;;5100784;28;20035;-63
2023/01/16 01:18:32;;;;;;;1.88;0.77;;;5.30;97.70;;;;;;5090031;28;20020;-62
2023/01/16 01:20:58;;;;;;;1.52;0.35;;;5.30;97.90;;;;;;5106311;28;20050;-62
2023/01/16 01:23:23;;;;;;;4.45;1.05;;;5.30;97.50;;;;;;5110089;28;20099;-62
2023/01/16 01:25:48;;;;;;;2.30;0.60;;;5.30;97.30;;;;;;5090227;28;20127;-62
2023/01/16 01:28:15;;;;;;;1.42;0.60;;;5.30;97.50;;;;;;5109591;28;20106;-63
2023/01/16 01:30:40;;;;;;;1.45;0.50;;;5.40;96.90;;;;;;5095172;28;20137;-62
2023/01/16 01:33:06;;;;;;;1.85;1.00;;;5.30;97.50;;;;;;5089594;28;20092;-62
2023/01/16 01:35:32;;;;;;;1.85;0.82;;;5.40;97.30;;;;;;5109380;28;20028;-62
2023/01/16 01:37:57;;;;;;;3.10;1.05;;;5.30;96.80;;;;;;5108075;28;20035;-62
2023/01/16 01:40:23;;;;;;;3.05;0.73;;;5.30;96.80;;;;;;5088648;28;20028;-62
2023/01/16 01:42:52;;;;;;;2.90;0.88;;;5.30;97.00;;;;;;5088545;28;20194;-65
2023/01/16 01:45:29;;;;;;;1.33;0.52;;;5.30;97.10;;;;;;5108914;28;20032;-67
2023/01/16 01:48:12;;;;;;;2.65;0.70;;;5.30;96.90;;;;;;5087146;28;20028;-67
2023/01/16 01:51:02;;;;;;;2.30;0.80;;;5.30;97.60;;;;;;5087926;28;20036;-67
2023/01/16 01:53:31;;;;;;;3.03;1.20;;;5.30;97.50;;;;;;5109032;28;20043;-68
2023/01/16 01:56:02;;;;;;;4.18;1.08;;;5.30;97.10;;;;;;5090571;28;20024;-69
2023/01/16 01:58:28;;;;;;;3.05;0.93;;;5.20;96.90;;;;;;5109631;28;20028;-68
2023/01/16 02:00:56;;;;;;;3.08;0.70;;;5.20;96.90;;;;;;5089088;28;20034;-68
2023/01/16 02:03:39;;;;;;;0.90;0.55;;;5.20;97.30;;;;;;5109537;28;20038;-71
2023/01/16 02:06:08;;;;;;;3.38;0.55;;;5.20;98.00;;;;;;5069127;28;20089;-68
2023/01/16 02:08:35;;;;;;;1.90;0.60;;;5.10;97.80;;;;;;5109828;28;20127;-67
2023/01/16 02:11:08;;;;;;;4.75;0.77;;;5.10;97.90;;;;;;5089840;28;20211;-68
2023/01/16 02:13:37;;;;;;;1.65;0.75;;;5.10;98.10;;;;;;5109381;28;20069;-67
2023/01/16 02:22:03;;;;;;;2.60;0.80;;;5.00;98.90;;;;;;5082696;28;20087;-67
2023/01/16 02:24:44;;;;;;;2.65;0.73;;;5.00;99.00;;;;;;5068866;28;20082;-68
2023/01/16 02:27:51;;;;;;;3.13;0.80;;;5.10;99.00;;;;;;5080288;28;20024;-68
2023/01/16 02:30:53;;;;;;;2.50;0.40;;;5.00;99.40;;;;;;5077845;28;20044;-68
2023/01/16 02:33:35;;;;;;;3.42;1.10;;;5.10;99.70;;;;;;5068703;28;20519;-69
2023/01/16 02:36:26;;;;;;;1.02;0.60;;;5.00;99.90;;;;;;5074108;28;20023;-69
2023/01/16 02:39:19;;;;;;;1.08;0.70;;;5.10;99.90;;;;;;5109240;28;20028;-69
2023/01/16 02:42:30;;;;;;;1.05;0.60;;;5.10;99.90;;;;;;5086131;28;20179;-68
2023/01/16 02:45:18;;;;;;;2.50;0.57;;;5.00;99.90;;;;;;5067347;28;20064;-69
2023/01/16 02:48:07;;;;;;;0.85;0.52;;;5.00;99.90;;;;;;5084610;28;20120;-71
2023/01/16 02:50:58;;;;;;;0.70;0.40;;;4.90;99.90;;;;;;5068586;28;20074;-68
2023/01/16 02:53:29;;;;;;;1.77;0.63;;;4.90;99.90;;;;;;5068321;28;20035;-69
2023/01/16 02:56:08;;;;;;;1.05;0.47;;;4.90;99.90;;;;;;5106946;28;20991;-68
2023/01/16 02:58:35;;;;;;;1.05;0.60;;;4.90;99.90;;;;;;5113203;28;20028;-69
2023/01/16 03:01:00;;;;;;;0.95;0.55;;;4.90;99.90;;;;;;5094752;27;20078;-69
2023/01/16 03:03:40;;;;;;;5.13;1.05;;;4.90;99.90;;;;;;5113037;28;20019;-69
2023/01/16 03:06:28;;;;;;;0.65;0.40;;;4.90;99.90;;;;;;5075368;28;20025;-69
2023/01/16 03:09:23;;;;;;;3.20;0.90;;;4.80;99.90;;;;;;5113098;28;20488;-69
2023/01/16 03:12:32;;;;;;;2.28;0.93;;;4.90;99.90;;;;;;5091218;28;20031;-69
2023/01/16 03:15:12;;;;;;;1.33;0.50;;;4.90;99.90;;;;;;5071424;28;20101;-69
2023/01/16 03:17:51;;;;;;;0.88;0.50;;;4.90;99.90;;;;;;5072787;28;20021;-69
2023/01/16 03:20:35;;;;;;;2.22;0.77;;;4.80;99.90;;;;;;5111611;28;20020;-69
2023/01/16 03:23:14;;;;;;;1.55;0.60;;;4.80;99.90;;;;;;5081032;28;20019;-69
2023/01/16 03:25:48;;;;;;;4.15;0.60;;;4.90;99.90;;;;;;5112479;28;20031;-69
2023/01/16 03:28:29;;;;;;;3.10;0.60;;;4.80;99.90;;;;;;5085173;28;20126;-69
2023/01/16 03:30:59;;;;;;;2.20;0.70;;;4.80;99.90;;;;;;5102074;27;20572;-69
2023/01/16 03:34:08;;;;;;;3.08;0.77;;;4.70;99.90;;;;;;5088069;28;20038;-69
2023/01/16 03:36:52;;;;;;;0.85;0.60;;;4.70;99.90;;;;;;5071766;28;20048;-68
2023/01/16 03:39:24;;;;;;;1.00;0.50;;;4.70;99.90;;;;;;5086510;28;20024;-68
2023/01/16 03:41:53;;;;;;;2.70;0.60;;;4.60;99.90;;;;;;5070344;28;20025;-68
2023/01/16 03:44:37;;;;;;;5.60;1.77;;;4.60;99.90;;;;;;5093137;28;20028;-68
2023/01/16 03:47:08;;;;;;;2.17;0.50;;;4.60;99.90;;;;;;5071490;28;20032;-68
2023/01/16 03:49:41;;;;;;;2.88;0.73;;;4.50;99.90;;;;;;5088501;28;20060;-68
2023/01/16 03:52:10;;;;;;;2.45;0.80;;;4.60;99.90;;;;;;5071454;28;20560;-68
2023/01/16 03:55:13;;;;;;;2.33;0.95;;;4.50;99.90;;;;;;5090654;28;20035;-68
2023/01/16 03:57:52;;;;;;;2.70;0.60;;;4.60;99.90;;;;;;5107840;28;20392;-68
2023/01/16 04:00:19;;;;;;;1.10;0.65;;;4.60;99.90;;;;;;5112032;28;20107;-68
2023/01/16 04:02:57;;;;;;;1.00;0.73;;;4.60;99.90;;;;;;5093127;28;20073;-68
2023/01/16 04:05:28;;;;;;;1.58;0.68;;;4.60;99.90;;;;;;5096252;28;20096;-68
2023/01/16 04:08:06;;;;;;;5.45;0.77;;;4.70;99.90;;;;;;5078117;28;20110;-68
2023/01/16 04:10:35;;;;;;;2.10;0.60;;;4.70;99.90;;;;;;5111893;28;20031;-68
2023/01/16 04:13:15;;;;;;;1.50;0.80;;;4.70;99.90;;;;;;5095193;28;20465;-68
2023/01/16 04:15:46;;;;;;;1.13;0.60;;;4.70;99.90;;;;;;5111560;28;20031;-68
2023/01/16 04:18:11;;;;;;;1.30;0.80;;;4.70;99.90;;;;;;5083665;28;20023;-68
2023/01/16 04:20:39;;;;;;;2.10;0.73;;;4.70;99.90;;;;;;5111592;28;20028;-68
2023/01/16 04:23:05;;;;;;;2.13;0.60;;;4.60;99.90;;;;;;5095622;28;20028;-68
2023/01/16 04:25:30;;;;;;;2.95;0.85;;;4.60;99.90;;;;;;5111552;28;20457;-68
2023/01/16 04:27:56;;;;;;;1.52;0.82;;;4.60;99.90;;;;;;5094875;28;20407;-68
2023/01/16 04:30:21;;;;;;;1.38;0.85;;;4.60;99.90;;;;;;5105439;28;20040;-68
2023/01/16 04:32:47;;;;;;;1.42;0.85;;;4.50;99.90;;;;;;5092753;28;20192;-68
2023/01/16 04:35:12;;;;;;;1.83;0.80;;;4.40;99.90;;;;;;5111299;28;20039;-68
2023/01/16 04:37:38;;;;;;;2.00;1.00;;;4.40;99.90;;;;;;5091978;28;20020;-69
2023/01/16 04:40:04;;;;;;;2.95;1.35;;;4.30;99.90;;;;;;5111013;28;20535;-68
2023/01/16 04:42:30;;;;;;;2.17;0.70;;;4.20;99.90;;;;;;5090683;28;20408;-68
2023/01/16 04:44:55;;;;;;;1.88;0.98;;;4.10;99.90;;;;;;5111193;28;20024;-68
2023/01/16 04:47:21;;;;;;;2.97;0.90;;;4.00;99.90;;;;;;5089148;28;20027;-68
2023/01/16 04:49:46;;;;;;;2.55;0.90;;;3.90;99.90;;;;;;5110962;28;20028;-68
2023/01/16 04:52:13;;;;;;;1.98;0.98;;;3.80;99.90;;;;;;5091115;28;20073;-69
2023/01/16 04:54:38;;;;;;;3.15;0.90;;;3.70;99.90;;;;;;5085541;28;20042;-69
2023/01/16 04:57:04;;;;;;;4.80;1.00;;;3.70;99.90;;;;;;5084472;28;20024;-69
2023/01/16 04:59:29;;;;;;;1.70;0.98;;;3.60;99.90;;;;;;5090208;28;20495;-68
2023/01/16 05:01:55;;;;;;;3.97;0.98;;;3.50;99.90;;;;;;5093162;28;20492;-69
2023/01/16 05:04:21;;;;;;;4.45;1.27;;;3.50;99.90;;;;;;5109820;28;20106;-68
2023/01/16 05:06:46;;;;;;;2.55;1.13;;;3.50;99.90;;;;;;5082841;28;20028;-69
2023/01/16 05:09:12;;;;;;;4.53;1.10;;;3.40;99.90;;;;;;5108792;28;20055;-69
2023/01/16 05:11:37;;;;;;;2.67;1.00;;;3.30;99.90;;;;;;5088863;28;20028;-69
2023/01/16 05:14:07;;;;;;;1.55;0.90;;;3.30;99.90;;;;;;5109793;28;20032;-69
2023/01/16 05:16:37;;;;;;;3.47;1.00;;;3.20;99.90;;;;;;5088491;28;20027;-65
2023/01/16 05:19:03;;;;;;;2.08;0.95;;;3.20;99.90;;;;;;5110211;28;20023;-66
2023/01/16 05:21:29;;;;;;;3.60;1.10;;;3.20;99.90;;;;;;5088193;28;20028;-66
2023/01/16 05:23:54;;;;;;;1.92;1.10;;;3.10;99.90;;;;;;5109509;28;20036;-65
2023/01/16 05:26:20;;;;;;;2.53;1.00;;;3.10;99.90;;;;;;5088732;28;20099;-65
2023/01/16 05:28:46;;;;;;;4.75;0.90;;;3.00;99.90;;;;;;5109516;28;20087;-66
2023/01/16 05:31:11;;;;;;;1.95;0.80;;;3.00;99.90;;;;;;5088466;28;20040;-65
2023/01/16 05:33:36;;;;;;;2.92;1.15;;;3.00;99.90;;;;;;5109527;28;20040;-66
2023/01/16 05:36:02;;;;;;;4.95;1.00;;;3.00;99.90;;;;;;5088281;28;20028;-65
2023/01/16 05:38:28;;;;;;;3.20;1.02;;;2.90;99.90;;;;;;5098884;28;20039;-65
2023/01/16 05:40:53;;;;;;;3.10;1.20;;;3.00;99.90;;;;;;5082505;28;20024;-66
2023/01/16 05:43:19;;;;;;;4.18;1.10;;;2.90;99.90;;;;;;5106500;28;20439;-66
2023/01/16 05:45:45;;;;;;;4.15;1.73;;;2.90;99.90;;;;;;5108657;28;20031;-66
2023/01/16 05:48:10;;;;;;;3.60;1.08;;;2.90;99.90;;;;;;5092697;28;20042;-65
2023/01/16 05:50:36;;;;;;;4.82;1.63;;;2.90;99.90;;;;;;5110181;28;20398;-65
2023/01/16 05:53:01;;;;;;;7.43;1.77;;;2.80;99.90;;;;;;5091254;28;20028;-66
2023/01/16 05:55:27;;;;;;;8.43;1.67;;;2.80;99.90;;;;;;5109741;28;20114;-66
2023/01/16 05:57:52;;;;;;;3.60;1.63;;;2.80;99.90;;;;;;5089993;28;20036;-65
2023/01/16 06:00:18;;;;;;;4.38;1.40;;;2.80;99.90;;;;;;5109830;28;20549;-65
2023/01/16 06:02:46;;;;;;;5.03;1.20;;;2.90;99.90;;;;;;5088344;28;20184;-65
2023/01/16 06:05:12;;;;;;;4.07;1.33;;;2.90;99.90;;;;;;5096486;28;20451;-66
2023/01/16 06:07:37;;;;;;;3.80;1.05;;;3.00;99.90;;;;;;5089471;28;20024;-65
2023/01/16 06:10:03;;;;;;;1.83;0.90;;;3.00;99.90;;;;;;5107567;28;20035;-66
2023/01/16 06:12:31;;;;;;;2.60;1.10;;;3.00;99.90;;;;;;5089830;28;20020;-66
2023/01/16 06:14:57;;;;;;;2.85;0.98;;;3.10;99.90;;;;;;5088101;28;20515;-66
2023/01/16 06:17:22;;;;;;;2.63;1.42;;;3.10;99.90;;;;;;5107717;28;20057;-66
2023/01/16 06:19:48;;;;;;;2.55;1.10;;;3.20;99.90;;;;;;5087436;28;20078;-66
2023/01/16 06:22:14;;;;;;;5.03;1.17;;;3.20;99.90;;;;;;5108678;28;20407;-66
2023/01/16 06:24:39;;;;;;;3.85;1.20;;;3.20;99.90;;;;;;5087658;28;20527;-65
2023/01/16 06:27:05;;;;;;;5.20;1.52;;;3.30;99.90;;;;;;5108442;28;20058;-66
2023/01/16 06:29:31;;;;;;;2.63;1.13;;;3.30;99.90;;;;;;5087571;28;20511;-65
2023/01/16 06:31:56;;;;;;;5.05;1.08;;;3.30;99.90;;;;;;5108012;28;20112;-66
2023/01/16 06:34:22;;;;;;;3.67;1.30;;;3.30;99.90;;;;;;5087277;28;20568;-65
2023/01/16 06:36:48;;;;;;;3.80;1.30;;;3.30;99.90;;;;;;5108319;28;20057;-65
2023/01/16 06:39:14;;;;;;;5.15;1.20;;;3.30;99.90;;;;;;5087400;28;20023;-65
2023/01/16 06:41:39;;;;;;;6.93;1.52;;;3.30;99.90;;;;;;5107133;28;20431;-65
2023/01/16 06:44:05;;;;;;;4.78;1.70;;;3.30;99.90;;;;;;5087216;28;20028;-65
2023/01/16 06:46:31;;;;;;;5.25;1.73;;;3.30;99.90;;;;;;5108116;28;20024;-66
2023/01/16 06:48:56;;;;;;;5.03;1.50;;;3.30;99.90;;;;;;5105277;28;20110;-66
2023/01/16 06:51:22;;;;;;;3.60;1.65;;;3.30;99.90;;;;;;5101185;28;20408;-67
2023/01/16 06:53:47;;;;;;;8.25;1.60;;;3.30;99.90;;;;;;5085468;28;20123;-66
2023/01/16 06:56:12;;;;;;;4.07;1.50;;;3.40;99.90;;;;;;5106866;28;20042;-67
2023/01/16 06:58:38;;;;;;;5.97;2.95;;;3.40;99.90;;;;;;5086205;28;20036;-67
2023/01/16 07:01:04;;;;;;;5.22;1.55;;;3.40;99.90;;;;;;5106638;28;20036;-65
2023/01/16 07:03:30;;;;;;;2.15;1.17;;;3.40;99.90;;;;;;5086138;28;20121;-67
2023/01/16 07:05:55;;;;;;;7.03;1.58;;;3.40;99.90;;;;;;5103762;28;20662;-66
2023/01/16 07:08:21;;;;;;;5.20;1.30;;;3.40;99.90;;;;;;5085975;28;20024;-67
2023/01/16 07:10:46;;;;;;;5.13;1.23;;;3.40;99.90;;;;;;5106965;28;20057;-67
2023/01/16 07:13:12;;;;;;;2.70;0.95;;;3.40;99.90;;;;;;5086233;28;20077;-68
2023/01/16 07:24:06;;;;;;;8.48;2.22;;;3.40;99.90;;;;;;5085776;28;20514;-69
2023/01/16 07:26:34;;;;;;;3.80;1.52;;;3.40;99.90;;;;;;5091003;28;20027;-67
2023/01/16 07:29:02;;;;;;;6.00;1.80;;;3.30;99.90;;;;;;5082725;28;20036;-66
2023/01/16 07:31:28;;;;;;;4.90;2.00;;;3.30;99.90;;;;;;5102585;28;20044;-66
2023/01/16 07:33:54;;;;;;;5.53;1.63;;;3.30;99.90;;;;;;5106726;28;20055;-66
2023/01/16 07:36:19;;;;;;;4.00;1.25;;;3.20;99.90;;;;;;5088820;28;20483;-66
2023/01/16 07:38:45;;;;;;;4.20;1.38;;;3.20;99.90;;;;;;5087343;28;20040;-67
2023/01/16 07:41:10;;;;;;;4.85;2.10;;;3.20;99.90;;;;;;5107821;28;20038;-67
2023/01/16 07:43:36;;;;;;;11.85;1.60;;;3.20;99.90;;;;;;5088148;28;20560;-66
2023/01/16 07:46:01;;;;;;;5.80;1.70;;;3.30;99.90;;;;;;5111657;28;20031;-61
2023/01/16 07:48:27;;;;;;;7.53;2.08;;;3.30;99.90;;;;;;5090488;28;20036;-67
2023/01/16 07:50:55;;;;;;;5.22;2.30;;;3.40;99.90;;;;;;5087417;28;20020;-61
2023/01/16 07:53:22;;;;;;;5.40;1.83;;;3.40;99.90;;;;;;5094526;28;20021;-61
2023/01/16 07:55:49;;;;;;;7.25;1.80;;;3.50;99.90;;;;;;5111525;28;20035;-61
2023/01/16 07:58:16;;;;;;;5.55;1.45;;;3.60;99.90;;;;;;5089848;28;20035;-62
2023/01/16 08:00:41;;;;;;;5.88;1.52;;;3.60;99.90;;;;;;5110891;28;20127;-62
2023/01/16 08:03:06;;;;;;;6.18;1.30;;;3.70;99.90;;;;;;5089810;28;20531;-62
2023/01/16 08:05:32;;;;;;;5.88;2.30;;;3.70;99.90;;;;;;5093929;28;20066;-61
2023/01/16 08:07:57;;;;;;;5.47;1.58;;;3.80;99.90;;;;;;5096857;28;20097;-61
2023/01/16 08:10:23;;;;;;;4.60;1.55;;;3.80;99.90;;;;;;5110927;28;20052;-62
2023/01/16 08:12:48;;;;;;;5.07;1.38;;;3.80;99.90;;;;;;5089464;28;20536;-61
2023/01/16 08:15:14;;;;;;;5.80;1.45;;;3.90;99.90;;;;;;5110494;28;20070;-62
2023/01/16 08:17:40;;;;;;;4.10;1.55;;;3.90;99.90;;;;;;5089602;28;20039;-62
2023/01/16 08:20:07;;;;;;;4.40;1.38;;;3.90;99.90;;;;;;5110754;28;20027;-62
2023/01/16 08:22:32;;;;;;;3.72;2.00;;;4.00;99.90;;;;;;5089194;28;20404;-62
2023/01/16 08:24:58;;;;;;;4.85;1.48;;;4.00;99.90;;;;;;5110223;28;20514;-62
2023/01/16 08:27:23;;;;;;;4.55;1.63;;;4.00;99.90;;;;;;5089252;28;20062;-61
2023/01/16 08:29:49;;;;;;;2.80;1.33;;;4.10;99.90;;;;;;5091361;28;20036;-61
2023/01/16 08:32:14;;;;;;;3.92;1.15;;;4.10;99.90;;;;;;5102968;28;20032;-61
2023/01/16 08:34:41;;;;;;;4.25;1.63;;;4.10;99.90;;;;;;5090419;28;20031;-62
2023/01/16 08:37:10;;;;;;;4.65;1.98;;;4.10;99.90;;;;;;5103175;28;20114;-61
2023/01/16 08:39:38;;;;;;;5.57;1.60;;;4.10;99.90;;;;;;5090459;28;20047;-63
2023/01/16 08:53:02;;;;;;;1.13;1.03;;;4.00;99.90;;;;;;5080878;28;20096;-61
2023/01/16 08:55:28;;;;;;;1.92;1.02;;;3.90;99.90;;;;;;5109668;28;20031;-62
2023/01/16 08:57:53;;;;;;;5.75;1.48;;;3.90;99.90;;;;;;5088730;28;20057;-61
2023/01/16 09:00:19;;;;;;;5.28;1.48;;;3.90;99.90;;;;;;5109703;28;20196;-62
2023/01/16 09:02:45;;;;;;;2.30;1.00;;;3.90;99.90;;;;;;5098960;28;20107;-62
2023/01/16 09:05:13;;;;;;;7.05;1.65;;;3.80;99.90;;;;;;5092948;28;20055;-62
2023/01/16 09:07:38;;;;;;;5.45;1.83;;;3.80;99.90;;;;;;5098949;28;20027;-62
2023/01/16 09:10:04;;;;;;;3.53;1.42;;;3.80;99.90;;;;;;5109446;28;20023;-61
2023/01/16 09:15:14;;;;;;;4.00;1.60;;;4.00;99.90;;;;;;5069876;28;20645;-61
2023/01/16 09:17:40;;;;;;;3.33;1.27;;;4.20;99.90;;;;;;5097064;28;20024;-60
2023/01/16 09:20:06;;;;;;;3.30;0.90;;;4.30;99.90;;;;;;5109326;28;20114;-60
2023/01/16 09:22:32;;;;;;;4.55;1.00;;;4.50;99.60;;;;;;5088073;28;20039;-60
2023/01/16 09:24:58;;;;;;;2.97;1.30;;;4.60;98.20;;;;;;5109465;28;20427;-60
2023/01/16 09:27:24;;;;;;;2.88;1.13;;;4.80;97.60;;;;;;5088297;28;20032;-61
2023/01/16 09:29:50;;;;;;;1.95;1.00;;;4.90;97.30;;;;;;5090196;28;20115;-60
2023/01/16 09:32:17;;;;;;;5.43;1.33;;;5.10;96.60;;;;;;5101710;28;20036;-61
2023/01/16 09:34:42;;;;;;;1.13;0.85;;;5.20;94.00;;;;;;5089363;28;20020;-60
2023/01/16 09:37:08;;;;;;;3.92;1.20;;;5.30;93.70;;;;;;5101881;28;20028;-60
2023/01/16 09:39:34;;;;;;;1.98;1.00;;;5.40;93.80;;;;;;5087983;28;20424;-60
2023/01/16 09:44:46;;;;;;;2.88;1.00;;;5.60;91.10;;;;;;5089367;28;20039;-61
2023/01/16 09:47:12;;;;;;;4.93;1.02;;;5.70;90.40;;;;;;5101498;28;20093;-60
2023/01/16 09:50:15;;;;;;;2.17;1.00;;;5.70;91.30;;;;;;5089367;28;20040;-60
2023/01/16 09:58:35;;;;;;;4.72;1.13;;;5.90;87.60;;;;;;5083201;28;20600;-61
2023/01/16 10:01:07;;;;;;;5.65;1.30;;;6.00;84.40;;;;;;5068743;28;20087;-60
2023/01/16 10:03:34;;;;;;;2.80;1.73;;;6.00;82.10;;;;;;5083896;28;20028;-60
2023/01/16 10:06:03;;;;;;;2.75;1.20;;;6.00;82.50;;;;;;5101607;28;20027;-60
2023/01/16 10:08:44;;;;;;;5.15;1.60;;;6.00;82.30;;;;;;5087036;28;20130;-60
2023/01/16 10:11:32;;;;;;;4.38;1.70;;;6.10;82.10;;;;;;5108373;28;20039;-60
2023/01/16 10:14:02;;;;;;;3.00;1.40;;;6.10;80.40;;;;;;5068572;28;20031;-61
2023/01/16 10:16:44;;;;;;;4.28;1.33;;;6.10;80.30;;;;;;5068611;28;20665;-60
2023/01/16 10:19:29;;;;;;;3.35;1.35;;;6.20;81.80;;;;;;5068488;28;20082;-60
2023/01/16 10:22:14;;;;;;;3.57;1.50;;;6.20;78.00;;;;;;5070121;28;20138;-60
2023/01/16 10:25:11;;;;;;;3.78;1.55;;;6.20;78.40;;;;;;5088682;28;20835;-61
2023/01/16 10:27:55;;;;;;;1.63;1.10;;;6.20;79.00;;;;;;5075649;28;20146;-60
2023/01/16 10:30:29;;;;;;;2.75;1.08;;;6.30;77.30;;;;;;5078718;28;20132;-60
2023/01/16 10:33:25;;;;;;;2.58;1.38;;;6.30;80.30;;;;;;5095129;28;20028;-60
2023/01/16 10:35:52;;;;;;;2.88;1.10;;;6.40;78.10;;;;;;5068393;28;20028;-61
2023/01/16 10:38:29;;;;;;;6.03;1.55;;;6.50;78.80;;;;;;5090929;28;20396;-60
2023/01/16 10:40:56;;;;;;;2.47;0.93;;;6.50;80.10;;;;;;5068498;28;20032;-60
2023/01/16 10:49:26;;;;;;;4.25;1.83;;;6.60;74.30;;;;;;5068425;28;20093;-60
2023/01/16 10:51:51;;;;;;;1.80;1.10;;;6.60;73.40;;;;;;5069459;28;20031;-60
2023/01/16 10:54:17;;;;;;;2.15;1.10;;;6.60;73.60;;;;;;5088221;28;20044;-61
2023/01/16 10:56:42;;;;;;;5.07;1.17;;;6.60;71.70;;;;;;5104156;28;20049;-60
2023/01/16 10:59:11;;;;;;;2.72;1.20;;;6.60;72.40;;;;;;5088247;28;20254;-60
2023/01/16 11:01:39;;;;;;;4.40;1.00;;;6.50;72.70;;;;;;5105356;28;20073;-60
2023/01/16 11:04:05;;;;;;;3.95;0.90;;;6.60;72.10;;;;;;5088520;28;20115;-60
2023/01/16 11:06:31;;;;;;;7.53;2.80;;;6.60;73.80;;;;;;5099762;28;20507;-60
2023/01/16 11:09:14;;;;;;;3.92;1.40;;;6.60;74.50;;;;;;5088215;28;20027;-60
2023/01/16 11:20:20;;;;;;;2.80;1.13;;;6.80;69.20;;;;;;5091983;28;20055;-60
2023/01/16 11:22:57;;;;;;;3.45;1.08;;;6.80;70.10;;;;;;5080571;28;20572;-61
2023/01/16 11:25:23;;;;;;;3.60;1.67;;;6.80;70.80;;;;;;5071735;28;20023;-60
2023/01/16 11:27:50;;;;;;;2.42;0.90;;;6.90;69.40;;;;;;5098048;28;20107;-61
2023/01/16 11:30:19;;;;;;;3.53;1.20;;;6.90;69.40;;;;;;5106974;28;20436;-61
2023/01/16 11:32:48;;;;;;;3.78;1.10;;;6.90;68.50;;;;;;5090015;28;20051;-60
2023/01/16 11:35:15;;;;;;;2.40;1.42;;;6.90;67.80;;;;;;5111621;28;20076;-60
2023/01/16 11:37:44;;;;;;;2.88;1.38;;;6.90;68.70;;;;;;5089936;28;20020;-60
2023/01/16 11:40:17;;;;;;;8.70;1.17;;;6.90;67.90;;;;;;5111745;28;20395;-60
2023/01/16 11:46:11;;;;;;;3.80;1.40;;;7.00;66.60;;;;;;5071369;28;20073;-60
2023/01/16 11:48:50;;;;;;;3.58;1.30;;;7.00;66.20;;;;;;5085804;28;20097;-60
2023/01/16 11:51:21;;;;;;;3.05;0.95;;;7.00;66.70;;;;;;5071408;28;20629;-60
2023/01/16 11:53:49;;;;;;;4.20;1.50;;;7.00;65.60;;;;;;5088567;28;20051;-60
2023/01/16 11:56:33;;;;;;;3.42;1.40;;;7.00;65.60;;;;;;5109977;28;20403;-60
2023/01/16 11:59:23;;;;;;;2.22;1.00;;;7.10;66.10;;;;;;5070913;28;20476;-60
2023/01/16 12:02:20;;;;;;;2.20;0.73;;;7.10;66.00;;;;;;5071714;28;20107;-60
2023/01/16 12:05:53;;;;;;;;;;;7.10;64.00;;;;;;5091612;28;20035;-60
2023/01/16 12:07:44;;;;;;;3.13;0.98;;;7.20;62.50;;;;;;5096309;28;19915;-61
2023/01/16 12:10:27;;;;;;;2.10;1.10;;;7.20;63.90;;;;;;5070908;28;20248;-60
2023/01/16 12:16:31;;;;;;;3.45;1.00;;;7.20;63.60;;;;;;5070851;28;20036;-60
2023/01/16 12:19:28;;;;;;;3.45;1.10;;;7.20;61.60;;;;;;5059679;28;20104;-60
2023/01/16 12:22:15;;;;;;;2.30;1.40;;;7.20;62.50;;;;;;5063796;28;20601;-60
2023/01/16 12:24:49;;;;;;;2.72;0.93;;;7.20;62.70;;;;;;5090943;28;20020;-60
2023/01/16 12:27:36;;;;;;;1.60;0.90;;;7.10;62.30;;;;;;5075074;28;20036;-60
2023/01/16 12:30:29;;;;;;;3.47;1.00;;;7.10;62.80;;;;;;5092759;28;20039;-60
2023/01/16 12:33:13;;;;;;;1.55;0.95;;;7.10;63.40;;;;;;5097296;27;20042;-60
2023/01/16 12:35:56;;;;;;;1.42;0.80;;;7.10;63.70;;;;;;5070213;28;20024;-60
2023/01/16 12:38:31;;;;;;;8.45;1.90;;;7.10;65.20;;;;;;5084091;28;20107;-61
2023/01/16 12:44:33;;;;;;;2.25;1.15;;;7.10;61.10;;;;;;5070425;28;20541;-60
2023/01/16 12:47:21;;;;;;;2.20;1.20;;;7.10;60.50;;;;;;5072507;28;20090;-60
2023/01/16 12:50:02;;;;;;;2.95;0.98;;;7.10;62.60;;;;;;5090470;28;20064;-60
2023/01/16 12:52:33;;;;;;;3.90;1.20;;;7.00;63.20;;;;;;5100284;28;20531;-60
2023/01/16 12:55:23;;;;;;;2.55;0.98;;;7.00;63.80;;;;;;5068715;28;20040;-60
2023/01/16 12:58:04;;;;;;;2.53;1.38;;;7.00;64.90;;;;;;5078999;28;20028;-60
2023/01/16 13:00:50;;;;;;;2.22;0.90;;;6.90;63.50;;;;;;5090172;28;20028;-61
2023/01/16 13:03:26;;;;;;;3.17;0.75;;;6.90;64.10;;;;;;5082819;28;20036;-60
2023/01/16 13:05:54;;;;;;;3.13;1.00;;;6.90;62.90;;;;;;5089146;28;20104;-62
2023/01/16 13:08:38;;;;;;;2.80;0.98;;;6.90;64.60;;;;;;5088281;28;20021;-63
2023/01/16 13:14:05;;;;;;;3.72;0.80;;;6.90;63.00;;;;;;5069905;28;20035;-62
2023/01/16 13:16:57;;;;;;;1.55;0.80;;;6.90;62.80;;;;;;5067843;28;20058;-60
2023/01/16 13:19:27;;;;;;;2.33;1.17;;;6.90;63.60;;;;;;5110189;28;20047;-62
2023/01/16 13:22:20;;;;;;;2.88;0.75;;;6.90;64.10;;;;;;5087657;28;20020;-63
2023/01/16 13:24:59;;;;;;;2.47;0.98;;;7.00;63.00;;;;;;5089895;28;20016;-63
2023/01/16 13:27:45;;;;;;;1.67;0.70;;;7.00;63.80;;;;;;5074979;28;20024;-62
2023/01/16 13:30:16;;;;;;;2.40;1.05;;;6.90;62.50;;;;;;5075506;28;20051;-62
2023/01/16 13:32:58;;;;;;;3.50;1.23;;;6.90;63.90;;;;;;5097830;28;20146;-63
2023/01/16 13:35:32;;;;;;;8.88;1.27;;;6.90;63.30;;;;;;5069301;28;20032;-63
2023/01/16 13:38:17;;;;;;;5.78;0.95;;;6.90;64.40;;;;;;5079433;28;20734;-62
2023/01/16 13:41:12;;;;;;;5.07;1.17;;;6.80;64.40;;;;;;5108244;28;20076;-62
2023/01/16 13:46:29;;;;;;;1.60;0.80;;;6.80;64.10;;;;;;5069206;28;20088;-62
2023/01/16 13:48:59;;;;;;;2.08;1.13;;;6.80;64.60;;;;;;5087165;28;20575;-62
2023/01/16 13:51:25;;;;;;;2.65;1.13;;;6.80;64.90;;;;;;5109390;28;20024;-66
2023/01/16 13:53:55;;;;;;;1.90;1.00;;;6.70;66.10;;;;;;5087716;28;20024;-62
2023/01/16 13:56:23;;;;;;;4.03;1.05;;;6.70;65.90;;;;;;5109286;28;20119;-61
2023/01/16 13:59:01;;;;;;;1.75;0.88;;;6.70;66.30;;;;;;5087488;28;20032;-62
2023/01/16 14:01:39;;;;;;;1.30;0.73;;;6.60;66.40;;;;;;5068793;28;20024;-62
2023/01/16 14:04:27;;;;;;;3.15;1.13;;;6.60;66.20;;;;;;5068840;28;20125;-62
2023/01/16 14:10:07;;;;;;;1.20;0.70;;;6.60;67.80;;;;;;5109502;28;20042;-62
2023/01/16 14:12:52;;;;;;;3.28;1.45;;;6.60;67.00;;;;;;5075524;28;20399;-61
2023/01/16 14:18:21;;;;;;;1.20;0.80;;;6.50;70.30;;;;;;5093466;28;20502;-63
2023/01/16 14:20:50;;;;;;;1.40;0.80;;;6.50;68.70;;;;;;5075835;28;20089;-62
2023/01/16 14:26:39;;;;;;;1.83;0.90;;;6.40;69.20;;;;;;5068701;28;20093;-62
2023/01/16 14:29:19;;;;;;;4.70;1.27;;;6.30;69.20;;;;;;5068452;28;20031;-62
2023/01/16 14:31:59;;;;;;;3.00;0.90;;;6.30;69.40;;;;;;5070219;28;20119;-62
2023/01/16 14:34:33;;;;;;;3.05;1.25;;;6.20;70.10;;;;;;5108857;28;20028;-62
2023/01/16 14:37:11;;;;;;;2.08;1.00;;;6.20;71.10;;;;;;5070353;28;20066;-62